createdAt,value
2022-10-09T00:01:14.683Z,5.50
2022-10-09T00:03:43.583Z,5.40
2022-10-09T00:06:13.091Z,5.30
2022-10-09T00:08:40.827Z,5.29
2022-10-09T00:11:09.175Z,5.34
2022-10-09T00:13:36.878Z,5.30
2022-10-09T00:16:05.467Z,5.26
2022-10-09T00:18:32.155Z,5.13
2022-10-09T00:20:59.020Z,5.17
2022-10-09T00:23:25.708Z,5.18
2022-10-09T00:25:55.274Z,5.21
2022-10-09T00:28:24.135Z,5.20
2022-10-09T00:30:50.722Z,5.18
2022-10-09T00:33:17.418Z,5.21
2022-10-09T00:35:44.086Z,5.21
2022-10-09T00:38:10.874Z,5.24
2022-10-09T00:40:38.234Z,5.26
2022-10-09T00:43:13.487Z,5.23
2022-10-09T00:45:44.738Z,5.22
2022-10-09T00:48:12.358Z,5.19
2022-10-09T00:50:44.639Z,5.12
2022-10-09T00:53:15.086Z,4.95
2022-10-09T00:55:43.144Z,5.02
2022-10-09T00:58:12.913Z,5.06
2022-10-09T01:00:40.162Z,4.99
2022-10-09T01:03:06.731Z,4.97
2022-10-09T01:05:47.164Z,4.95
2022-10-09T01:08:25.519Z,4.99
2022-10-09T01:11:04.250Z,5.12
2022-10-09T01:13:57.718Z,5.24
2022-10-09T01:16:29.375Z,5.26
2022-10-09T01:19:01.883Z,5.23
2022-10-09T01:21:37.356Z,5.18
2022-10-09T01:24:19.949Z,5.26
2022-10-09T01:26:58.006Z,5.26
2022-10-09T01:29:30.566Z,5.33
2022-10-09T01:31:59.070Z,5.31
2022-10-09T01:34:27.585Z,5.33
2022-10-09T01:36:56.581Z,5.33
2022-10-09T01:39:25.152Z,5.19
2022-10-09T01:41:53.539Z,5.17
2022-10-09T01:44:22.924Z,5.13
2022-10-09T01:46:49.824Z,5.04
2022-10-09T01:49:37.962Z,4.93
2022-10-09T01:52:14.148Z,4.96
2022-10-09T01:55:03.132Z,5.01
2022-10-09T01:57:39.724Z,4.92
2022-10-09T02:00:10.183Z,4.86
2022-10-09T02:02:42.248Z,4.84
2022-10-09T02:05:17.541Z,4.78
2022-10-09T02:07:44.259Z,4.74
2022-10-09T02:10:11.517Z,4.84
2022-10-09T02:12:46.901Z,4.93
2022-10-09T02:15:13.995Z,4.96
2022-10-09T02:17:45.779Z,5.02
2022-10-09T02:20:19.641Z,4.99
2022-10-09T02:22:47.023Z,4.92
2022-10-09T02:25:14.669Z,4.92
2022-10-09T02:27:41.577Z,4.92
2022-10-09T02:30:09.818Z,4.92
2022-10-09T02:32:36.462Z,4.90
2022-10-09T02:35:03.256Z,4.97
2022-10-09T02:37:29.791Z,5.06
2022-10-09T02:39:56.194Z,5.09
2022-10-09T02:42:22.758Z,5.11
2022-10-09T02:44:49.182Z,5.11
2022-10-09T02:47:15.735Z,5.18
2022-10-09T02:49:42.207Z,5.11
2022-10-09T02:52:08.864Z,5.09
2022-10-09T02:54:35.378Z,5.11
2022-10-09T02:57:01.825Z,5.10
2022-10-09T02:59:28.367Z,5.09
2022-10-09T03:01:55.862Z,5.17
2022-10-09T03:04:22.514Z,5.06
2022-10-09T03:06:48.922Z,5.01
2022-10-09T03:09:15.484Z,5.08
2022-10-09T03:11:41.900Z,5.03
2022-10-09T03:14:09.581Z,5.05
2022-10-09T03:16:36.317Z,5.03
2022-10-09T03:19:03.114Z,5.03
2022-10-09T03:21:29.792Z,5.07
2022-10-09T03:23:56.870Z,5.12
2022-10-09T03:26:25.892Z,5.20
2022-10-09T03:28:54.305Z,5.10
2022-10-09T03:31:46.969Z,5.17
2022-10-09T03:34:11.191Z,5.03
2022-10-09T03:36:37.795Z,4.85
2022-10-09T03:39:04.280Z,4.95
2022-10-09T03:41:30.773Z,4.99
2022-10-09T03:43:57.196Z,4.97
2022-10-09T03:46:23.766Z,4.88
2022-10-09T03:48:50.366Z,5.00
2022-10-09T03:51:16.874Z,4.87
2022-10-09T03:53:43.364Z,4.84
2022-10-09T03:56:09.870Z,4.87
2022-10-09T03:58:36.685Z,4.85
2022-10-09T04:01:03.263Z,4.74
2022-10-09T04:03:29.926Z,4.83
2022-10-09T04:05:56.544Z,4.74
2022-10-09T04:08:23.000Z,4.72
2022-10-09T04:10:56.937Z,4.76
2022-10-09T04:13:23.504Z,4.72
2022-10-09T04:15:50.995Z,4.60
2022-10-09T04:18:17.751Z,4.68
2022-10-09T04:20:54.813Z,4.74
2022-10-09T04:23:22.754Z,4.67
2022-10-09T04:25:53.845Z,4.79
2022-10-09T04:28:20.586Z,4.81
2022-10-09T04:30:47.109Z,4.80
2022-10-09T04:33:13.573Z,4.67
2022-10-09T04:35:46.916Z,4.70
2022-10-09T04:38:13.486Z,4.72
2022-10-09T04:40:39.982Z,4.71
2022-10-09T04:43:06.545Z,4.66
2022-10-09T04:45:33.036Z,4.58
2022-10-09T04:47:59.611Z,4.58
2022-10-09T04:50:26.059Z,4.58
2022-10-09T04:52:58.573Z,4.58
2022-10-09T04:55:25.546Z,4.47
2022-10-09T04:57:52.084Z,4.46
2022-10-09T05:00:18.536Z,4.52
2022-10-09T05:02:45.038Z,4.41
2022-10-09T05:05:11.496Z,4.52
2022-10-09T05:07:38.633Z,4.48
2022-10-09T05:10:06.572Z,4.48
2022-10-09T05:12:33.101Z,4.33
2022-10-09T05:14:59.491Z,4.35
2022-10-09T05:17:26.075Z,4.25
2022-10-09T05:19:52.472Z,4.30
2022-10-09T05:22:19.032Z,4.28
2022-10-09T05:24:45.717Z,4.38
2022-10-09T05:27:12.213Z,4.27
2022-10-09T05:29:38.664Z,4.21
2022-10-09T05:32:05.271Z,4.25
2022-10-09T05:34:33.987Z,4.35
2022-10-09T05:37:00.563Z,4.20
2022-10-09T05:39:26.965Z,4.24
2022-10-09T05:41:53.508Z,4.20
2022-10-09T05:44:19.988Z,4.22
2022-10-09T05:46:46.506Z,4.26
2022-10-09T05:49:13.007Z,4.32
2022-10-09T05:51:42.760Z,4.21
2022-10-09T05:54:15.039Z,4.13
2022-10-09T05:56:42.344Z,4.17
2022-10-09T05:59:11.569Z,4.22
2022-10-09T06:01:40.946Z,4.28
2022-10-09T06:04:10.932Z,4.18
2022-10-09T06:06:39.371Z,4.11
2022-10-09T06:09:07.774Z,3.96
2022-10-09T06:11:37.279Z,4.08
2022-10-09T06:14:05.619Z,4.17
2022-10-09T06:16:35.381Z,4.15
2022-10-09T06:19:03.329Z,4.33
2022-10-09T06:21:30.083Z,4.52
2022-10-09T06:23:59.618Z,4.48
2022-10-09T06:26:29.301Z,4.49
2022-10-09T06:29:00.778Z,4.41
2022-10-09T06:31:29.841Z,4.65
2022-10-09T06:33:59.129Z,4.53
2022-10-09T06:36:28.705Z,4.31
2022-10-09T06:38:55.664Z,4.46
2022-10-09T06:41:24.323Z,4.57
2022-10-09T06:43:54.311Z,4.20
2022-10-09T06:46:23.015Z,4.32
2022-10-09T06:48:49.690Z,4.53
2022-10-09T06:51:17.241Z,4.61
2022-10-09T06:53:46.907Z,4.67
2022-10-09T06:56:14.784Z,4.43
2022-10-09T06:58:42.155Z,4.50
2022-10-09T07:01:13.142Z,4.59
2022-10-09T07:03:41.875Z,4.66
2022-10-09T07:06:12.608Z,4.36
2022-10-09T07:08:41.237Z,4.59
2022-10-09T07:11:10.232Z,4.16
2022-10-09T07:13:37.713Z,4.30
2022-10-09T07:16:05.114Z,4.27
2022-10-09T07:18:34.198Z,4.39
2022-10-09T07:21:02.309Z,4.58
2022-10-09T07:23:30.535Z,4.61
2022-10-09T07:25:58.377Z,4.80
2022-10-09T07:28:26.952Z,4.64
2022-10-09T07:30:53.934Z,4.89
2022-10-09T07:33:20.473Z,4.77
2022-10-09T07:35:56.835Z,4.60
2022-10-09T07:38:27.323Z,4.93
2022-10-09T07:40:54.766Z,5.18
2022-10-09T07:43:22.334Z,5.12
2022-10-09T07:45:48.885Z,4.98
2022-10-09T07:48:15.559Z,5.14
2022-10-09T07:50:41.966Z,5.46
2022-10-09T07:53:08.837Z,5.40
2022-10-09T07:55:36.189Z,5.39
2022-10-09T07:58:02.853Z,5.48
2022-10-09T08:00:29.421Z,5.25
2022-10-09T08:02:55.929Z,5.47
2022-10-09T08:05:22.576Z,5.69
2022-10-09T08:07:49.212Z,5.90
2022-10-09T08:10:15.800Z,5.51
2022-10-09T08:12:42.222Z,5.52
2022-10-09T08:15:09.292Z,5.59
2022-10-09T08:17:35.866Z,5.83
2022-10-09T08:20:02.299Z,6.05
2022-10-09T08:22:28.844Z,5.83
2022-10-09T08:24:55.270Z,5.97
2022-10-09T08:27:21.785Z,5.95
2022-10-09T08:29:48.285Z,6.23
2022-10-09T08:32:14.996Z,6.37
2022-10-09T08:34:41.536Z,6.24
2022-10-09T08:37:07.946Z,6.09
2022-10-09T08:39:34.449Z,6.29
2022-10-09T08:42:04.113Z,6.61
2022-10-09T08:44:39.546Z,6.87
2022-10-09T08:47:13.968Z,6.99
2022-10-09T08:49:47.317Z,7.24
2022-10-09T08:52:38.224Z,7.46
2022-10-09T08:55:24.548Z,7.48
2022-10-09T08:57:54.873Z,7.65
2022-10-09T09:00:24.420Z,7.81
2022-10-09T09:03:13.937Z,8.03
2022-10-09T09:05:51.943Z,8.08
2022-10-09T09:09:05.279Z,8.55
2022-10-09T09:11:44.086Z,8.62
2022-10-09T09:14:40.194Z,8.97
2022-10-09T09:17:26.956Z,9.06
2022-10-09T09:20:24.644Z,9.42
2022-10-09T09:22:52.204Z,9.60
2022-10-09T09:25:34.993Z,9.93
2022-10-09T09:28:33.264Z,10.05
2022-10-09T09:31:15.878Z,10.16
2022-10-09T09:34:13.914Z,10.44
2022-10-09T09:36:54.129Z,10.58
2022-10-09T09:42:10.253Z,10.97
2022-10-09T09:44:44.952Z,11.19
2022-10-09T09:47:22.415Z,11.19
2022-10-09T09:50:00.534Z,11.35
2022-10-09T09:52:34.486Z,11.42
2022-10-09T09:55:01.222Z,11.72
2022-10-09T09:57:33.105Z,11.68
2022-10-09T10:00:10.253Z,11.76
2022-10-09T10:02:36.635Z,11.85
2022-10-09T10:05:17.350Z,11.76
2022-10-09T10:07:44.283Z,12.03
2022-10-09T10:10:27.900Z,11.98
2022-10-09T10:12:59.943Z,11.89
2022-10-09T10:33:19.224Z,11.91
2022-10-09T10:35:51.796Z,12.31
2022-10-09T10:38:33.591Z,12.20
2022-10-09T10:41:14.255Z,12.46
2022-10-09T10:43:46.329Z,12.24
2022-10-09T10:46:23.607Z,12.38
2022-10-09T10:48:51.610Z,12.65
2022-10-09T10:51:35.469Z,12.73
2022-10-09T10:54:38.178Z,13.08
2022-10-09T10:57:42.447Z,13.05
2022-10-09T11:00:13.965Z,13.34
2022-10-09T11:03:03.228Z,12.97
2022-10-09T11:05:44.835Z,13.08
2022-10-09T11:08:47.514Z,13.05
2022-10-09T11:11:17.012Z,13.23
2022-10-09T11:13:58.370Z,12.99
2022-10-09T11:16:37.186Z,12.99
2022-10-09T11:19:22.312Z,13.29
2022-10-09T11:22:02.518Z,13.50
2022-10-09T11:24:45.178Z,13.68
2022-10-09T11:27:41.658Z,13.90
2022-10-09T11:30:16.775Z,13.80
2022-10-09T11:33:05.211Z,14.51
2022-10-09T11:35:40.336Z,13.65
2022-10-09T11:38:25.578Z,13.63
2022-10-09T11:40:53.376Z,13.62
2022-10-09T11:43:25.978Z,14.04
2022-10-09T11:46:01.433Z,13.90
2022-10-09T11:48:51.906Z,13.79
2022-10-09T11:51:38.125Z,13.95
2022-10-09T11:54:11.050Z,13.83
2022-10-09T11:56:37.533Z,13.73
2022-10-09T11:59:06.569Z,14.27
2022-10-09T12:01:37.067Z,13.99
2022-10-09T12:04:08.597Z,13.98
2022-10-09T12:06:50.946Z,14.16
2022-10-09T12:09:32.038Z,14.20
2022-10-09T12:12:09.203Z,14.09
2022-10-09T12:14:37.833Z,14.05
2022-10-09T12:17:45.873Z,14.21
2022-10-09T12:20:20.258Z,14.18
2022-10-09T12:23:13.851Z,14.14
2022-10-09T12:25:43.120Z,14.05
2022-10-09T12:28:34.465Z,13.83
2022-10-09T12:31:05.075Z,14.12
2022-10-09T12:33:45.730Z,14.13
2022-10-09T12:36:15.179Z,13.91
2022-10-09T12:38:42.874Z,13.77
2022-10-09T12:41:20.901Z,13.85
2022-10-09T12:43:50.580Z,14.04
2022-10-09T12:46:28.325Z,14.06
2022-10-09T12:48:55.492Z,14.16
2022-10-09T12:51:28.154Z,14.12
2022-10-09T12:53:55.278Z,14.23
2022-10-09T12:56:32.524Z,14.14
2022-10-09T12:59:02.092Z,14.19
2022-10-09T13:01:29.146Z,14.05
2022-10-09T13:04:01.006Z,14.34
2022-10-09T13:06:38.094Z,14.42
2022-10-09T13:09:05.932Z,13.99
2022-10-09T13:11:38.091Z,13.74
2022-10-09T13:14:04.996Z,13.53
2022-10-09T13:16:42.827Z,13.59
2022-10-09T13:19:33.410Z,13.73
2022-10-09T13:22:19.971Z,13.28
2022-10-09T13:24:49.699Z,13.46
2022-10-09T13:27:16.410Z,13.26
2022-10-09T13:29:43.204Z,13.08
2022-10-09T13:32:13.096Z,13.18
2022-10-09T13:34:39.880Z,13.09
2022-10-09T13:37:06.387Z,13.67
2022-10-09T13:39:33.780Z,13.20
2022-10-09T13:42:02.001Z,13.75
2022-10-09T13:44:28.547Z,13.68
2022-10-09T13:46:55.023Z,13.32
2022-10-09T13:49:21.792Z,13.53
2022-10-09T13:51:48.357Z,13.66
2022-10-09T13:54:14.838Z,13.58
2022-10-09T13:56:41.287Z,13.97
2022-10-09T13:59:07.837Z,14.09
2022-10-09T14:01:34.243Z,13.54
2022-10-09T14:04:00.819Z,13.64
2022-10-09T14:06:27.826Z,13.49
2022-10-09T14:08:54.331Z,13.56
2022-10-09T14:11:20.827Z,13.38
2022-10-09T14:13:47.191Z,13.44
2022-10-09T14:16:14.251Z,13.58
2022-10-09T14:18:40.705Z,13.53
2022-10-09T14:21:13.885Z,13.25
2022-10-09T14:23:41.667Z,13.19
2022-10-09T14:26:08.126Z,13.38
2022-10-09T14:28:34.700Z,13.16
2022-10-09T14:31:05.922Z,13.35
2022-10-09T14:33:32.518Z,13.39
2022-10-09T14:36:05.868Z,13.39
2022-10-09T14:38:32.398Z,13.29
2022-10-09T14:40:59.027Z,13.60
2022-10-09T14:43:25.537Z,13.33
2022-10-09T14:46:01.878Z,13.26
2022-10-09T14:48:28.378Z,13.19
2022-10-09T14:50:54.779Z,13.08
2022-10-09T14:53:21.266Z,12.90
2022-10-09T14:55:47.727Z,13.14
2022-10-09T14:58:14.173Z,13.01
2022-10-09T15:00:46.693Z,13.11
2022-10-09T15:03:13.299Z,12.96
2022-10-09T15:05:39.684Z,13.28
2022-10-09T15:08:06.156Z,13.03
2022-10-09T15:10:34.425Z,12.87
2022-10-09T15:13:00.865Z,12.91
2022-10-09T15:15:31.830Z,12.76
2022-10-09T15:17:59.255Z,12.79
2022-10-09T15:20:25.747Z,12.72
2022-10-09T15:22:52.199Z,12.45
2022-10-09T15:25:18.603Z,12.45
2022-10-09T15:27:45.169Z,12.28
2022-10-09T15:30:11.707Z,12.42
2022-10-09T15:32:38.362Z,12.35
2022-10-09T15:35:05.309Z,12.38
2022-10-09T15:37:31.855Z,12.31
2022-10-09T15:39:58.283Z,12.10
2022-10-09T15:42:24.826Z,12.15
2022-10-09T15:44:51.502Z,12.28
2022-10-09T15:47:27.070Z,12.46
2022-10-09T15:50:04.888Z,12.33
2022-10-09T15:52:31.352Z,12.09
2022-10-09T15:54:57.965Z,12.06
2022-10-09T15:57:24.451Z,12.02
2022-10-09T15:59:50.948Z,11.92
2022-10-09T16:02:17.425Z,11.90
2022-10-09T16:04:43.930Z,11.94
2022-10-09T16:07:10.313Z,11.72
2022-10-09T16:09:37.138Z,11.88
2022-10-09T16:12:03.950Z,11.74
2022-10-09T16:14:31.689Z,11.68
2022-10-09T16:16:58.955Z,11.58
2022-10-09T16:19:25.467Z,11.57
2022-10-09T16:21:52.337Z,11.63
2022-10-09T16:24:18.943Z,11.57
2022-10-09T16:26:45.425Z,11.55
2022-10-09T16:29:11.903Z,11.49
2022-10-09T16:31:38.492Z,11.43
2022-10-09T16:34:05.814Z,11.46
2022-10-09T16:36:32.934Z,11.53
2022-10-09T16:38:59.917Z,11.37
2022-10-09T16:41:26.761Z,11.38
2022-10-09T16:43:55.683Z,11.23
2022-10-09T16:46:25.367Z,11.15
2022-10-09T16:48:53.293Z,11.20
2022-10-09T16:51:23.561Z,11.09
2022-10-09T16:53:54.813Z,11.04
2022-10-09T16:56:24.844Z,11.07
2022-10-09T16:58:56.146Z,11.00
2022-10-09T17:01:23.459Z,10.91
2022-10-09T17:03:49.915Z,10.92
2022-10-09T17:06:23.485Z,11.01
2022-10-09T17:08:51.121Z,10.96
2022-10-09T17:11:18.125Z,10.87
2022-10-09T17:13:45.628Z,10.81
2022-10-09T17:16:18.199Z,10.77
2022-10-09T17:18:45.945Z,10.75
2022-10-09T17:21:13.825Z,10.71
2022-10-09T17:23:41.070Z,10.70
2022-10-09T17:26:18.505Z,10.62
2022-10-09T17:28:46.467Z,10.56
2022-10-09T17:31:16.033Z,10.43
2022-10-09T17:33:45.905Z,10.47
2022-10-09T17:36:14.262Z,10.50
2022-10-09T17:38:40.750Z,10.51
2022-10-09T17:41:08.939Z,10.31
2022-10-09T17:43:35.394Z,10.32
2022-10-09T17:46:01.987Z,10.28
2022-10-09T17:48:29.129Z,10.24
2022-10-09T17:50:58.118Z,10.20
2022-10-09T17:53:24.809Z,10.12
2022-10-09T17:55:53.530Z,10.10
2022-10-09T17:58:21.639Z,10.03
2022-10-09T18:00:49.155Z,9.95
2022-10-09T18:03:16.945Z,9.90
2022-10-09T18:05:45.185Z,9.98
2022-10-09T18:08:12.744Z,9.84
2022-10-09T18:10:39.432Z,9.92
2022-10-09T18:13:07.571Z,9.85
2022-10-09T18:15:37.865Z,9.86
2022-10-09T18:18:05.007Z,9.80
2022-10-09T18:20:34.599Z,9.81
2022-10-09T18:23:01.089Z,9.78
2022-10-09T18:25:27.518Z,9.60
2022-10-09T18:27:54.405Z,9.66
2022-10-09T18:30:20.893Z,9.61
2022-10-09T18:32:48.598Z,9.75
2022-10-09T18:35:15.414Z,9.75
2022-10-09T18:37:41.911Z,9.80
2022-10-09T18:40:08.849Z,9.75
2022-10-09T18:42:35.719Z,9.71
2022-10-09T18:45:03.300Z,9.74
2022-10-09T18:47:34.962Z,9.60
2022-10-09T18:50:06.609Z,9.69
2022-10-09T18:52:34.369Z,9.57
2022-10-09T18:55:02.473Z,9.60
2022-10-09T18:57:29.390Z,9.58
2022-10-09T18:59:57.438Z,9.56
2022-10-09T19:02:26.539Z,9.48
2022-10-09T19:04:54.568Z,9.43
2022-10-09T19:07:21.262Z,9.46
2022-10-09T19:09:55.015Z,9.45
2022-10-09T19:12:24.575Z,9.26
2022-10-09T19:14:51.661Z,9.31
2022-10-09T19:17:18.530Z,9.31
2022-10-09T19:19:45.177Z,9.32
2022-10-09T19:22:15.423Z,9.29
2022-10-09T19:24:44.259Z,9.22
2022-10-09T19:27:11.125Z,9.18
2022-10-09T19:29:37.753Z,9.20
2022-10-09T19:32:04.151Z,9.26
2022-10-09T19:34:30.852Z,9.23
2022-10-09T19:36:57.534Z,9.17
2022-10-09T19:39:24.043Z,9.21
2022-10-09T19:41:51.134Z,9.16
2022-10-09T19:44:17.986Z,9.24
2022-10-09T19:46:45.238Z,9.27
2022-10-09T19:49:12.117Z,9.25
2022-10-09T19:51:38.633Z,9.36
2022-10-09T19:54:07.684Z,9.40
2022-10-09T19:56:35.130Z,9.44
2022-10-09T19:59:06.379Z,9.38
2022-10-09T20:01:35.306Z,9.30
2022-10-09T20:04:05.293Z,9.35
2022-10-09T20:06:31.852Z,9.28
2022-10-09T20:08:58.362Z,9.31
2022-10-09T20:11:26.206Z,9.33
2022-10-09T20:13:56.060Z,9.23
2022-10-09T20:16:24.516Z,9.28
2022-10-09T20:18:51.270Z,9.28
2022-10-09T20:21:18.049Z,9.22
2022-10-09T20:23:44.610Z,9.21
2022-10-09T20:26:13.003Z,9.25
2022-10-09T20:28:39.934Z,9.18
2022-10-09T20:31:07.973Z,9.21
2022-10-09T20:33:35.753Z,9.14
2022-10-09T20:36:03.553Z,9.11
2022-10-09T20:38:30.010Z,9.14
2022-10-09T20:41:07.916Z,9.10
2022-10-09T20:43:35.574Z,8.98
2022-10-09T20:46:13.620Z,9.01
2022-10-09T20:48:43.973Z,9.06
2022-10-09T20:51:10.610Z,9.01
2022-10-09T20:53:36.984Z,9.01
2022-10-09T20:56:06.760Z,8.98
2022-10-09T20:58:35.126Z,8.97
2022-10-09T21:01:07.188Z,8.93
2022-10-09T21:03:35.605Z,8.94
2022-10-09T21:06:07.315Z,8.98
2022-10-09T21:08:34.726Z,8.85
2022-10-09T21:11:07.703Z,8.83
2022-10-09T21:13:35.239Z,8.74
2022-10-09T21:16:05.126Z,8.80
2022-10-09T21:18:31.643Z,8.51
2022-10-09T21:21:04.222Z,8.69
2022-10-09T21:23:30.794Z,8.67
2022-10-09T21:25:57.140Z,8.63
2022-10-09T21:28:24.498Z,8.59
2022-10-09T21:30:51.019Z,8.48
2022-10-09T21:33:18.081Z,8.49
2022-10-09T21:35:50.205Z,8.41
2022-10-09T21:38:19.673Z,8.36
2022-10-09T21:40:47.164Z,8.43
2022-10-09T21:43:13.789Z,8.36
2022-10-09T21:45:40.455Z,8.38
2022-10-09T21:48:07.221Z,8.33
2022-10-09T21:50:34.538Z,8.27
2022-10-09T21:53:01.027Z,8.21
2022-10-09T21:55:27.486Z,8.26
2022-10-09T21:57:54.618Z,8.28
2022-10-09T22:00:21.446Z,8.17
2022-10-09T22:18:06.210Z,7.75
2022-10-09T22:20:32.645Z,7.88
2022-10-09T22:22:59.228Z,7.93
2022-10-09T22:25:25.653Z,8.07
2022-10-09T22:27:52.183Z,8.11
2022-10-09T22:30:18.574Z,8.21
2022-10-09T22:32:45.073Z,8.22
2022-10-09T22:35:11.577Z,8.20
2022-10-09T22:37:38.115Z,8.25
2022-10-09T22:40:04.706Z,8.37
2022-10-09T22:42:31.243Z,8.30
2022-10-09T22:44:57.616Z,8.39
2022-10-09T22:47:24.042Z,8.35
2022-10-09T22:49:50.571Z,8.36
2022-10-09T22:52:17.038Z,8.36
2022-10-09T22:54:43.673Z,8.34
2022-10-09T22:57:10.042Z,8.48
2022-10-09T22:59:36.471Z,8.34
2022-10-09T23:02:03.076Z,8.33
2022-10-09T23:04:29.528Z,8.36
2022-10-09T23:06:58.098Z,8.29
2022-10-09T23:09:27.623Z,8.23
2022-10-09T23:11:54.704Z,8.28
2022-10-09T23:14:21.372Z,8.23
2022-10-09T23:16:48.154Z,8.18
2022-10-09T23:19:15.000Z,8.15
2022-10-09T23:21:43.689Z,8.19
2022-10-09T23:24:12.016Z,8.06
2022-10-09T23:26:38.588Z,8.00
2022-10-09T23:29:06.765Z,8.08
2022-10-09T23:31:33.755Z,8.04
2022-10-09T23:34:00.478Z,8.03
2022-10-09T23:36:28.881Z,8.04
2022-10-09T23:38:56.783Z,7.98
2022-10-09T23:41:25.252Z,7.99
2022-10-09T23:43:52.135Z,7.98
2022-10-09T23:46:21.166Z,7.90
2022-10-09T23:48:48.799Z,7.90
2022-10-09T23:51:16.121Z,7.94
2022-10-09T23:53:43.516Z,7.95
2022-10-09T23:56:25.297Z,7.97
2022-10-09T23:58:53.215Z,7.92
